sensor_id;sensor_type;location;lat;lon;timestamp;P1;durP1;ratioP1;P2;durP2;ratioP2
10471;SDS011;5283;48.876;8.962;2023-07-20T00:02:23;2.27;;;1.67;;
10471;SDS011;5283;48.876;8.962;2023-07-20T00:04:50;2.30;;;2.10;;
10471;SDS011;5283;48.876;8.962;2023-07-20T00:07:17;2.70;;;2.50;;
10471;SDS011;5283;48.876;8.962;2023-07-20T00:09:43;4.07;;;1.73;;
10471;SDS011;5283;48.876;8.962;2023-07-20T00:12:10;3.77;;;1.80;;
10471;SDS011;5283;48.876;8.962;2023-07-20T00:14:37;2.87;;;2.10;;
10471;SDS011;5283;48.876;8.962;2023-07-20T00:17:04;4.93;;;1.97;;
10471;SDS011;5283;48.876;8.962;2023-07-20T00:19:31;2.83;;;1.60;;
10471;SDS011;5283;48.876;8.962;2023-07-20T00:21:58;2.67;;;2.10;;
10471;SDS011;5283;48.876;8.962;2023-07-20T00:24:25;2.33;;;2.10;;
10471;SDS011;5283;48.876;8.962;2023-07-20T00:26:52;2.40;;;1.90;;
10471;SDS011;5283;48.876;8.962;2023-07-20T00:29:19;4.43;;;2.07;;
10471;SDS011;5283;48.876;8.962;2023-07-20T00:31:46;2.57;;;1.77;;
10471;SDS011;5283;48.876;8.962;2023-07-20T00:34:13;2.93;;;2.10;;
10471;SDS011;5283;48.876;8.962;2023-07-20T00:36:40;3.40;;;1.80;;
10471;SDS011;5283;48.876;8.962;2023-07-20T00:39:07;2.50;;;2.13;;
10471;SDS011;5283;48.876;8.962;2023-07-20T00:41:34;4.87;;;1.87;;
10471;SDS011;5283;48.876;8.962;2023-07-20T00:44:01;3.67;;;2.13;;
10471;SDS011;5283;48.876;8.962;2023-07-20T00:46:28;2.00;;;1.80;;
10471;SDS011;5283;48.876;8.962;2023-07-20T00:48:54;4.03;;;1.90;;
10471;SDS011;5283;48.876;8.962;2023-07-20T00:51:22;5.07;;;1.90;;
10471;SDS011;5283;48.876;8.962;2023-07-20T00:53:50;3.40;;;2.30;;
10471;SDS011;5283;48.876;8.962;2023-07-20T00:56:17;2.47;;;2.20;;
10471;SDS011;5283;48.876;8.962;2023-07-20T00:58:44;3.30;;;2.10;;
10471;SDS011;5283;48.876;8.962;2023-07-20T01:01:11;2.57;;;1.97;;
10471;SDS011;5283;48.876;8.962;2023-07-20T01:03:37;2.07;;;1.90;;
10471;SDS011;5283;48.876;8.962;2023-07-20T01:06:09;3.30;;;2.40;;
10471;SDS011;5283;48.876;8.962;2023-07-20T01:08:53;2.83;;;2.20;;
10471;SDS011;5283;48.876;8.962;2023-07-20T01:11:36;3.60;;;2.10;;
10471;SDS011;5283;48.876;8.962;2023-07-20T01:14:12;3.13;;;1.87;;
10471;SDS011;5283;48.876;8.962;2023-07-20T01:16:41;3.50;;;2.27;;
10471;SDS011;5283;48.876;8.962;2023-07-20T01:19:08;2.90;;;1.90;;
10471;SDS011;5283;48.876;8.962;2023-07-20T01:21:38;3.27;;;2.10;;
10471;SDS011;5283;48.876;8.962;2023-07-20T01:32:15;2.53;;;2.10;;
10471;SDS011;5283;48.876;8.962;2023-07-20T01:34:43;2.33;;;2.13;;
10471;SDS011;5283;48.876;8.962;2023-07-20T01:37:12;2.37;;;2.17;;
10471;SDS011;5283;48.876;8.962;2023-07-20T01:39:40;4.03;;;2.30;;
10471;SDS011;5283;48.876;8.962;2023-07-20T01:42:07;8.40;;;2.50;;
10471;SDS011;5283;48.876;8.962;2023-07-20T01:44:34;3.80;;;2.57;;
10471;SDS011;5283;48.876;8.962;2023-07-20T01:47:00;3.43;;;2.70;;
10471;SDS011;5283;48.876;8.962;2023-07-20T01:49:27;2.93;;;2.60;;
10471;SDS011;5283;48.876;8.962;2023-07-20T01:51:54;3.23;;;2.53;;
10471;SDS011;5283;48.876;8.962;2023-07-20T01:54:20;3.20;;;2.33;;
10471;SDS011;5283;48.876;8.962;2023-07-20T01:56:47;3.80;;;3.00;;
10471;SDS011;5283;48.876;8.962;2023-07-20T01:59:14;4.33;;;2.63;;
10471;SDS011;5283;48.876;8.962;2023-07-20T02:01:41;4.80;;;3.00;;
10471;SDS011;5283;48.876;8.962;2023-07-20T02:04:07;2.90;;;2.63;;
10471;SDS011;5283;48.876;8.962;2023-07-20T02:06:34;3.77;;;2.73;;
10471;SDS011;5283;48.876;8.962;2023-07-20T02:09:01;5.80;;;3.20;;
10471;SDS011;5283;48.876;8.962;2023-07-20T02:11:28;5.50;;;2.50;;
10471;SDS011;5283;48.876;8.962;2023-07-20T02:13:54;4.03;;;2.80;;
10471;SDS011;5283;48.876;8.962;2023-07-20T02:16:21;4.77;;;3.10;;
10471;SDS011;5283;48.876;8.962;2023-07-20T02:18:48;3.37;;;2.47;;
10471;SDS011;5283;48.876;8.962;2023-07-20T02:21:15;5.07;;;2.80;;
10471;SDS011;5283;48.876;8.962;2023-07-20T02:23:42;5.33;;;3.27;;
10471;SDS011;5283;48.876;8.962;2023-07-20T02:26:09;4.03;;;2.53;;
10471;SDS011;5283;48.876;8.962;2023-07-20T02:28:36;2.83;;;2.63;;
10471;SDS011;5283;48.876;8.962;2023-07-20T02:31:02;3.83;;;2.63;;
10471;SDS011;5283;48.876;8.962;2023-07-20T02:33:29;5.90;;;2.90;;
10471;SDS011;5283;48.876;8.962;2023-07-20T02:35:56;4.17;;;3.00;;
10471;SDS011;5283;48.876;8.962;2023-07-20T02:38:23;4.57;;;3.30;;
10471;SDS011;5283;48.876;8.962;2023-07-20T02:40:50;3.90;;;2.83;;
10471;SDS011;5283;48.876;8.962;2023-07-20T02:43:17;3.73;;;2.77;;
10471;SDS011;5283;48.876;8.962;2023-07-20T02:45:44;4.63;;;3.40;;
10471;SDS011;5283;48.876;8.962;2023-07-20T02:48:11;3.87;;;3.30;;
10471;SDS011;5283;48.876;8.962;2023-07-20T02:50:38;3.40;;;2.90;;
10471;SDS011;5283;48.876;8.962;2023-07-20T02:53:04;2.90;;;2.67;;
10471;SDS011;5283;48.876;8.962;2023-07-20T02:55:31;3.20;;;2.90;;
10471;SDS011;5283;48.876;8.962;2023-07-20T02:57:58;4.93;;;3.13;;
10471;SDS011;5283;48.876;8.962;2023-07-20T03:00:25;6.07;;;3.63;;
10471;SDS011;5283;48.876;8.962;2023-07-20T03:02:52;3.83;;;2.90;;
10471;SDS011;5283;48.876;8.962;2023-07-20T03:05:22;5.80;;;3.33;;
10471;SDS011;5283;48.876;8.962;2023-07-20T03:07:51;6.13;;;3.37;;
10471;SDS011;5283;48.876;8.962;2023-07-20T03:10:18;3.83;;;2.97;;
10471;SDS011;5283;48.876;8.962;2023-07-20T03:12:45;4.10;;;3.13;;
10471;SDS011;5283;48.876;8.962;2023-07-20T03:15:11;3.77;;;3.37;;
10471;SDS011;5283;48.876;8.962;2023-07-20T03:17:38;4.10;;;3.03;;
10471;SDS011;5283;48.876;8.962;2023-07-20T03:20:05;3.83;;;3.13;;
10471;SDS011;5283;48.876;8.962;2023-07-20T03:22:35;3.27;;;2.97;;
10471;SDS011;5283;48.876;8.962;2023-07-20T03:25:02;8.30;;;3.10;;
10471;SDS011;5283;48.876;8.962;2023-07-20T03:27:30;5.47;;;3.27;;
10471;SDS011;5283;48.876;8.962;2023-07-20T03:29:57;3.30;;;3.00;;
10471;SDS011;5283;48.876;8.962;2023-07-20T03:32:24;3.60;;;3.30;;
10471;SDS011;5283;48.876;8.962;2023-07-20T03:34:51;5.03;;;3.37;;
10471;SDS011;5283;48.876;8.962;2023-07-20T03:37:17;5.53;;;3.00;;
10471;SDS011;5283;48.876;8.962;2023-07-20T03:39:44;3.47;;;3.17;;
10471;SDS011;5283;48.876;8.962;2023-07-20T03:42:11;4.77;;;3.40;;
10471;SDS011;5283;48.876;8.962;2023-07-20T03:44:37;6.67;;;3.50;;
10471;SDS011;5283;48.876;8.962;2023-07-20T03:47:05;4.00;;;2.97;;
10471;SDS011;5283;48.876;8.962;2023-07-20T03:49:32;3.40;;;3.00;;
10471;SDS011;5283;48.876;8.962;2023-07-20T03:52:18;3.53;;;3.10;;
10471;SDS011;5283;48.876;8.962;2023-07-20T03:54:44;3.20;;;2.83;;
10471;SDS011;5283;48.876;8.962;2023-07-20T03:57:11;5.00;;;3.10;;
10471;SDS011;5283;48.876;8.962;2023-07-20T03:59:38;4.13;;;3.33;;
10471;SDS011;5283;48.876;8.962;2023-07-20T04:02:05;5.00;;;3.07;;
10471;SDS011;5283;48.876;8.962;2023-07-20T04:04:32;8.20;;;3.30;;
10471;SDS011;5283;48.876;8.962;2023-07-20T04:06:59;5.97;;;3.13;;
10471;SDS011;5283;48.876;8.962;2023-07-20T04:09:26;3.53;;;2.70;;
10471;SDS011;5283;48.876;8.962;2023-07-20T04:11:52;5.23;;;3.00;;
10471;SDS011;5283;48.876;8.962;2023-07-20T04:14:19;5.67;;;3.03;;
10471;SDS011;5283;48.876;8.962;2023-07-20T04:16:46;3.70;;;2.90;;
10471;SDS011;5283;48.876;8.962;2023-07-20T04:19:13;5.90;;;2.80;;
10471;SDS011;5283;48.876;8.962;2023-07-20T04:21:40;3.30;;;2.83;;
10471;SDS011;5283;48.876;8.962;2023-07-20T04:24:07;2.80;;;2.60;;
10471;SDS011;5283;48.876;8.962;2023-07-20T04:26:34;5.23;;;2.27;;
10471;SDS011;5283;48.876;8.962;2023-07-20T04:29:01;3.67;;;2.50;;
10471;SDS011;5283;48.876;8.962;2023-07-20T04:31:28;4.80;;;2.30;;
10471;SDS011;5283;48.876;8.962;2023-07-20T04:33:56;2.80;;;2.23;;
10471;SDS011;5283;48.876;8.962;2023-07-20T04:36:23;2.80;;;2.40;;
10471;SDS011;5283;48.876;8.962;2023-07-20T04:38:50;3.27;;;2.40;;
10471;SDS011;5283;48.876;8.962;2023-07-20T04:41:17;2.67;;;2.20;;
10471;SDS011;5283;48.876;8.962;2023-07-20T04:43:44;2.37;;;2.17;;
10471;SDS011;5283;48.876;8.962;2023-07-20T04:46:11;2.40;;;2.20;;
10471;SDS011;5283;48.876;8.962;2023-07-20T04:48:37;2.57;;;2.33;;
10471;SDS011;5283;48.876;8.962;2023-07-20T04:51:04;2.50;;;2.13;;
10471;SDS011;5283;48.876;8.962;2023-07-20T04:53:31;2.03;;;1.80;;
10471;SDS011;5283;48.876;8.962;2023-07-20T04:55:58;3.07;;;2.00;;
10471;SDS011;5283;48.876;8.962;2023-07-20T04:58:25;2.93;;;1.87;;
10471;SDS011;5283;48.876;8.962;2023-07-20T05:00:52;2.43;;;2.23;;
10471;SDS011;5283;48.876;8.962;2023-07-20T05:03:19;2.67;;;2.03;;
10471;SDS011;5283;48.876;8.962;2023-07-20T05:05:46;1.93;;;1.83;;
10471;SDS011;5283;48.876;8.962;2023-07-20T05:08:17;3.13;;;2.30;;
10471;SDS011;5283;48.876;8.962;2023-07-20T05:10:43;2.30;;;2.10;;
10471;SDS011;5283;48.876;8.962;2023-07-20T05:13:11;2.63;;;2.20;;
10471;SDS011;5283;48.876;8.962;2023-07-20T05:15:40;2.50;;;2.17;;
10471;SDS011;5283;48.876;8.962;2023-07-20T05:18:08;3.17;;;2.10;;
10471;SDS011;5283;48.876;8.962;2023-07-20T05:20:36;4.93;;;2.10;;
10471;SDS011;5283;48.876;8.962;2023-07-20T05:23:03;4.70;;;2.20;;
10471;SDS011;5283;48.876;8.962;2023-07-20T05:25:30;4.17;;;2.43;;
10471;SDS011;5283;48.876;8.962;2023-07-20T05:27:57;6.13;;;2.30;;
10471;SDS011;5283;48.876;8.962;2023-07-20T05:30:24;2.70;;;2.50;;
10471;SDS011;5283;48.876;8.962;2023-07-20T05:32:51;2.83;;;2.37;;
10471;SDS011;5283;48.876;8.962;2023-07-20T05:35:18;3.20;;;2.50;;
10471;SDS011;5283;48.876;8.962;2023-07-20T05:37:45;2.80;;;2.30;;
10471;SDS011;5283;48.876;8.962;2023-07-20T05:40:12;3.37;;;2.60;;
10471;SDS011;5283;48.876;8.962;2023-07-20T05:42:40;2.63;;;2.40;;
10471;SDS011;5283;48.876;8.962;2023-07-20T05:45:07;2.90;;;2.33;;
10471;SDS011;5283;48.876;8.962;2023-07-20T05:47:35;2.40;;;2.20;;
10471;SDS011;5283;48.876;8.962;2023-07-20T05:50:02;2.30;;;2.10;;
10471;SDS011;5283;48.876;8.962;2023-07-20T05:52:29;3.67;;;2.03;;
10471;SDS011;5283;48.876;8.962;2023-07-20T05:54:56;3.47;;;2.20;;
10471;SDS011;5283;48.876;8.962;2023-07-20T05:57:23;3.77;;;2.37;;
10471;SDS011;5283;48.876;8.962;2023-07-20T05:59:50;2.57;;;2.10;;
10471;SDS011;5283;48.876;8.962;2023-07-20T06:02:17;3.33;;;1.93;;
10471;SDS011;5283;48.876;8.962;2023-07-20T06:04:44;5.53;;;2.07;;
10471;SDS011;5283;48.876;8.962;2023-07-20T06:07:11;4.60;;;1.90;;
10471;SDS011;5283;48.876;8.962;2023-07-20T06:09:39;5.50;;;2.20;;
10471;SDS011;5283;48.876;8.962;2023-07-20T06:12:06;3.47;;;2.20;;
10471;SDS011;5283;48.876;8.962;2023-07-20T06:14:33;4.20;;;2.20;;
10471;SDS011;5283;48.876;8.962;2023-07-20T06:17:00;3.80;;;1.80;;
10471;SDS011;5283;48.876;8.962;2023-07-20T06:19:27;3.87;;;2.13;;
10471;SDS011;5283;48.876;8.962;2023-07-20T06:21:54;4.30;;;2.17;;
10471;SDS011;5283;48.876;8.962;2023-07-20T06:24:20;5.97;;;2.37;;
10471;SDS011;5283;48.876;8.962;2023-07-20T06:26:47;4.63;;;2.47;;
10471;SDS011;5283;48.876;8.962;2023-07-20T06:29:14;6.20;;;2.60;;
10471;SDS011;5283;48.876;8.962;2023-07-20T06:31:41;7.60;;;2.27;;
10471;SDS011;5283;48.876;8.962;2023-07-20T06:34:07;3.77;;;1.97;;
10471;SDS011;5283;48.876;8.962;2023-07-20T06:36:34;3.80;;;1.97;;
10471;SDS011;5283;48.876;8.962;2023-07-20T06:39:01;6.93;;;2.60;;
10471;SDS011;5283;48.876;8.962;2023-07-20T06:41:32;7.60;;;2.37;;
10471;SDS011;5283;48.876;8.962;2023-07-20T06:44:02;2.93;;;2.23;;
10471;SDS011;5283;48.876;8.962;2023-07-20T06:46:29;3.40;;;2.30;;
10471;SDS011;5283;48.876;8.962;2023-07-20T06:48:56;3.60;;;1.93;;
10471;SDS011;5283;48.876;8.962;2023-07-20T06:51:26;4.70;;;2.33;;
10471;SDS011;5283;48.876;8.962;2023-07-20T06:53:53;2.73;;;2.07;;
10471;SDS011;5283;48.876;8.962;2023-07-20T06:56:20;5.27;;;2.03;;
10471;SDS011;5283;48.876;8.962;2023-07-20T06:58:46;4.30;;;2.40;;
10471;SDS011;5283;48.876;8.962;2023-07-20T07:01:13;3.33;;;2.20;;
10471;SDS011;5283;48.876;8.962;2023-07-20T07:03:41;2.20;;;2.00;;
10471;SDS011;5283;48.876;8.962;2023-07-20T07:06:08;3.60;;;2.17;;
10471;SDS011;5283;48.876;8.962;2023-07-20T07:08:35;5.13;;;2.10;;
10471;SDS011;5283;48.876;8.962;2023-07-20T07:11:02;2.57;;;2.20;;
10471;SDS011;5283;48.876;8.962;2023-07-20T07:13:28;5.70;;;2.10;;
10471;SDS011;5283;48.876;8.962;2023-07-20T07:15:56;4.03;;;2.27;;
10471;SDS011;5283;48.876;8.962;2023-07-20T07:18:23;5.20;;;2.03;;
10471;SDS011;5283;48.876;8.962;2023-07-20T07:20:51;3.87;;;2.10;;
10471;SDS011;5283;48.876;8.962;2023-07-20T07:23:19;3.47;;;2.30;;
10471;SDS011;5283;48.876;8.962;2023-07-20T07:25:46;3.03;;;2.13;;
10471;SDS011;5283;48.876;8.962;2023-07-20T07:28:13;3.13;;;2.10;;
10471;SDS011;5283;48.876;8.962;2023-07-20T07:30:40;5.80;;;2.43;;
10471;SDS011;5283;48.876;8.962;2023-07-20T07:33:07;3.03;;;2.40;;
10471;SDS011;5283;48.876;8.962;2023-07-20T07:35:34;4.37;;;2.07;;
10471;SDS011;5283;48.876;8.962;2023-07-20T07:38:02;3.87;;;2.33;;
10471;SDS011;5283;48.876;8.962;2023-07-20T07:40:34;2.20;;;1.97;;
10471;SDS011;5283;48.876;8.962;2023-07-20T07:43:01;3.37;;;1.80;;
10471;SDS011;5283;48.876;8.962;2023-07-20T07:45:28;4.00;;;2.40;;
10471;SDS011;5283;48.876;8.962;2023-07-20T07:47:55;2.70;;;1.77;;
10471;SDS011;5283;48.876;8.962;2023-07-20T07:50:22;4.27;;;2.50;;
10471;SDS011;5283;48.876;8.962;2023-07-20T07:52:49;3.70;;;1.97;;
10471;SDS011;5283;48.876;8.962;2023-07-20T07:55:15;3.53;;;2.00;;
10471;SDS011;5283;48.876;8.962;2023-07-20T07:57:44;3.20;;;2.10;;
10471;SDS011;5283;48.876;8.962;2023-07-20T08:00:10;3.83;;;2.13;;
10471;SDS011;5283;48.876;8.962;2023-07-20T08:02:41;3.33;;;2.07;;
10471;SDS011;5283;48.876;8.962;2023-07-20T08:05:08;3.77;;;2.20;;
10471;SDS011;5283;48.876;8.962;2023-07-20T08:07:36;2.37;;;2.00;;
10471;SDS011;5283;48.876;8.962;2023-07-20T08:10:03;2.57;;;1.90;;
10471;SDS011;5283;48.876;8.962;2023-07-20T08:12:31;2.93;;;2.20;;
10471;SDS011;5283;48.876;8.962;2023-07-20T08:14:58;2.60;;;2.20;;
10471;SDS011;5283;48.876;8.962;2023-07-20T08:17:25;1.93;;;1.73;;
10471;SDS011;5283;48.876;8.962;2023-07-20T08:19:52;3.87;;;2.20;;
10471;SDS011;5283;48.876;8.962;2023-07-20T08:22:18;4.93;;;2.30;;
10471;SDS011;5283;48.876;8.962;2023-07-20T08:24:45;3.87;;;2.30;;
10471;SDS011;5283;48.876;8.962;2023-07-20T08:27:12;2.43;;;2.00;;
10471;SDS011;5283;48.876;8.962;2023-07-20T08:29:39;4.77;;;2.50;;
10471;SDS011;5283;48.876;8.962;2023-07-20T08:32:06;2.20;;;2.00;;
10471;SDS011;5283;48.876;8.962;2023-07-20T08:34:32;4.00;;;2.10;;
10471;SDS011;5283;48.876;8.962;2023-07-20T08:36:59;2.83;;;2.13;;
10471;SDS011;5283;48.876;8.962;2023-07-20T08:39:27;2.30;;;2.10;;
10471;SDS011;5283;48.876;8.962;2023-07-20T08:41:54;2.63;;;2.10;;
10471;SDS011;5283;48.876;8.962;2023-07-20T08:44:23;3.13;;;2.00;;
10471;SDS011;5283;48.876;8.962;2023-07-20T08:46:51;2.40;;;2.20;;
10471;SDS011;5283;48.876;8.962;2023-07-20T08:49:19;4.23;;;1.87;;
10471;SDS011;5283;48.876;8.962;2023-07-20T08:51:46;2.77;;;1.90;;
10471;SDS011;5283;48.876;8.962;2023-07-20T08:54:14;4.10;;;1.80;;
10471;SDS011;5283;48.876;8.962;2023-07-20T08:56:42;3.10;;;2.00;;
10471;SDS011;5283;48.876;8.962;2023-07-20T08:59:12;3.00;;;1.70;;
10471;SDS011;5283;48.876;8.962;2023-07-20T09:01:42;4.10;;;2.00;;
10471;SDS011;5283;48.876;8.962;2023-07-20T09:04:11;3.00;;;1.97;;
10471;SDS011;5283;48.876;8.962;2023-07-20T09:06:39;3.57;;;1.83;;
10471;SDS011;5283;48.876;8.962;2023-07-20T09:09:10;2.33;;;2.03;;
10471;SDS011;5283;48.876;8.962;2023-07-20T09:11:37;3.23;;;1.60;;
10471;SDS011;5283;48.876;8.962;2023-07-20T09:14:08;1.97;;;1.77;;
10471;SDS011;5283;48.876;8.962;2023-07-20T09:16:49;1.77;;;1.60;;
10471;SDS011;5283;48.876;8.962;2023-07-20T09:19:18;3.90;;;2.10;;
10471;SDS011;5283;48.876;8.962;2023-07-20T09:21:46;2.57;;;1.60;;
10471;SDS011;5283;48.876;8.962;2023-07-20T09:24:15;2.83;;;1.40;;
10471;SDS011;5283;48.876;8.962;2023-07-20T09:26:44;2.60;;;1.50;;
10471;SDS011;5283;48.876;8.962;2023-07-20T09:29:14;1.40;;;1.30;;
10471;SDS011;5283;48.876;8.962;2023-07-20T09:32:03;1.73;;;1.60;;
10471;SDS011;5283;48.876;8.962;2023-07-20T09:34:31;1.87;;;1.53;;
10471;SDS011;5283;48.876;8.962;2023-07-20T09:37:01;4.07;;;1.80;;
10471;SDS011;5283;48.876;8.962;2023-07-20T09:39:28;3.00;;;1.70;;
10471;SDS011;5283;48.876;8.962;2023-07-20T09:41:59;2.13;;;1.50;;
10471;SDS011;5283;48.876;8.962;2023-07-20T09:44:30;1.40;;;1.30;;
10471;SDS011;5283;48.876;8.962;2023-07-20T09:47:02;1.80;;;1.60;;
10471;SDS011;5283;48.876;8.962;2023-07-20T09:49:30;1.83;;;1.73;;
10471;SDS011;5283;48.876;8.962;2023-07-20T09:52:17;1.80;;;1.30;;
10471;SDS011;5283;48.876;8.962;2023-07-20T09:54:48;1.50;;;1.37;;
10471;SDS011;5283;48.876;8.962;2023-07-20T09:57:16;2.17;;;1.40;;
10471;SDS011;5283;48.876;8.962;2023-07-20T09:59:43;1.43;;;1.23;;
10471;SDS011;5283;48.876;8.962;2023-07-20T10:02:12;1.43;;;1.33;;
10471;SDS011;5283;48.876;8.962;2023-07-20T10:04:48;2.03;;;1.57;;
10471;SDS011;5283;48.876;8.962;2023-07-20T10:07:22;1.60;;;1.50;;
10471;SDS011;5283;48.876;8.962;2023-07-20T10:09:51;2.53;;;1.87;;
10471;SDS011;5283;48.876;8.962;2023-07-20T10:12:19;2.27;;;1.57;;
10471;SDS011;5283;48.876;8.962;2023-07-20T10:15:11;1.37;;;1.27;;
10471;SDS011;5283;48.876;8.962;2023-07-20T10:17:47;1.87;;;1.60;;
10471;SDS011;5283;48.876;8.962;2023-07-20T10:20:23;2.80;;;1.67;;
10471;SDS011;5283;48.876;8.962;2023-07-20T10:22:53;1.57;;;1.33;;
10471;SDS011;5283;48.876;8.962;2023-07-20T10:25:22;2.70;;;1.57;;
10471;SDS011;5283;48.876;8.962;2023-07-20T10:27:50;2.30;;;1.77;;
10471;SDS011;5283;48.876;8.962;2023-07-20T10:30:17;1.37;;;1.27;;
10471;SDS011;5283;48.876;8.962;2023-07-20T10:32:45;1.60;;;1.50;;
10471;SDS011;5283;48.876;8.962;2023-07-20T10:35:16;2.57;;;1.60;;
10471;SDS011;5283;48.876;8.962;2023-07-20T10:37:53;3.63;;;1.80;;
10471;SDS011;5283;48.876;8.962;2023-07-20T10:43:06;2.30;;;1.60;;
10471;SDS011;5283;48.876;8.962;2023-07-20T10:48:05;1.20;;;1.10;;
10471;SDS011;5283;48.876;8.962;2023-07-20T10:50:40;1.47;;;1.37;;
10471;SDS011;5283;48.876;8.962;2023-07-20T10:53:12;1.33;;;1.20;;
10471;SDS011;5283;48.876;8.962;2023-07-20T10:55:43;1.50;;;1.20;;
10471;SDS011;5283;48.876;8.962;2023-07-20T10:58:11;4.73;;;1.40;;
10471;SDS011;5283;48.876;8.962;2023-07-20T11:00:54;2.13;;;1.40;;
10471;SDS011;5283;48.876;8.962;2023-07-20T11:05:57;1.50;;;1.40;;
10471;SDS011;5283;48.876;8.962;2023-07-20T11:08:39;1.67;;;1.53;;
10471;SDS011;5283;48.876;8.962;2023-07-20T11:11:26;2.13;;;1.33;;
10471;SDS011;5283;48.876;8.962;2023-07-20T11:13:55;1.73;;;1.40;;
10471;SDS011;5283;48.876;8.962;2023-07-20T11:16:43;3.20;;;1.70;;
10471;SDS011;5283;48.876;8.962;2023-07-20T11:19:16;1.70;;;1.27;;
10471;SDS011;5283;48.876;8.962;2023-07-20T11:21:49;2.93;;;1.40;;
10471;SDS011;5283;48.876;8.962;2023-07-20T11:24:26;2.47;;;1.43;;
10471;SDS011;5283;48.876;8.962;2023-07-20T11:26:53;1.50;;;1.30;;
10471;SDS011;5283;48.876;8.962;2023-07-20T11:29:21;1.97;;;1.67;;
10471;SDS011;5283;48.876;8.962;2023-07-20T11:31:55;1.77;;;1.67;;
10471;SDS011;5283;48.876;8.962;2023-07-20T11:34:23;4.57;;;1.70;;
10471;SDS011;5283;48.876;8.962;2023-07-20T11:36:51;2.60;;;1.70;;
10471;SDS011;5283;48.876;8.962;2023-07-20T11:39:21;3.73;;;1.50;;
10471;SDS011;5283;48.876;8.962;2023-07-20T11:41:54;1.83;;;1.30;;
10471;SDS011;5283;48.876;8.962;2023-07-20T11:44:23;2.03;;;1.57;;
10471;SDS011;5283;48.876;8.962;2023-07-20T11:49:34;1.53;;;1.43;;
10471;SDS011;5283;48.876;8.962;2023-07-20T11:52:03;2.87;;;1.17;;
10471;SDS011;5283;48.876;8.962;2023-07-20T11:54:35;2.00;;;1.10;;
10471;SDS011;5283;48.876;8.962;2023-07-20T11:57:03;1.17;;;1.07;;
10471;SDS011;5283;48.876;8.962;2023-07-20T11:59:34;2.83;;;1.40;;
10471;SDS011;5283;48.876;8.962;2023-07-20T12:02:01;1.63;;;1.50;;
10471;SDS011;5283;48.876;8.962;2023-07-20T12:04:31;2.30;;;1.90;;
10471;SDS011;5283;48.876;8.962;2023-07-20T12:06:58;1.90;;;1.30;;
10471;SDS011;5283;48.876;8.962;2023-07-20T12:09:25;1.37;;;1.20;;
10471;SDS011;5283;48.876;8.962;2023-07-20T12:11:55;2.30;;;1.53;;
10471;SDS011;5283;48.876;8.962;2023-07-20T12:14:24;1.67;;;1.43;;
10471;SDS011;5283;48.876;8.962;2023-07-20T12:16:52;1.60;;;1.50;;
10471;SDS011;5283;48.876;8.962;2023-07-20T12:19:24;2.80;;;1.53;;
10471;SDS011;5283;48.876;8.962;2023-07-20T12:21:56;2.00;;;1.50;;
10471;SDS011;5283;48.876;8.962;2023-07-20T12:24:25;3.23;;;1.67;;
10471;SDS011;5283;48.876;8.962;2023-07-20T12:26:55;3.93;;;1.47;;
10471;SDS011;5283;48.876;8.962;2023-07-20T12:29:24;1.67;;;1.57;;
10471;SDS011;5283;48.876;8.962;2023-07-20T12:31:51;1.93;;;1.50;;
10471;SDS011;5283;48.876;8.962;2023-07-20T12:34:18;1.47;;;1.37;;
10471;SDS011;5283;48.876;8.962;2023-07-20T12:36:45;1.33;;;1.10;;
10471;SDS011;5283;48.876;8.962;2023-07-20T12:39:12;2.00;;;1.57;;
10471;SDS011;5283;48.876;8.962;2023-07-20T12:41:38;4.93;;;1.67;;
10471;SDS011;5283;48.876;8.962;2023-07-20T12:44:05;1.60;;;1.40;;
10471;SDS011;5283;48.876;8.962;2023-07-20T12:46:32;2.77;;;1.47;;
10471;SDS011;5283;48.876;8.962;2023-07-20T12:49:01;2.87;;;1.60;;
10471;SDS011;5283;48.876;8.962;2023-07-20T12:51:28;2.00;;;1.50;;
10471;SDS011;5283;48.876;8.962;2023-07-20T12:53:55;3.20;;;1.30;;
10471;SDS011;5283;48.876;8.962;2023-07-20T12:56:22;3.27;;;1.50;;
10471;SDS011;5283;48.876;8.962;2023-07-20T12:58:51;2.50;;;1.60;;
10471;SDS011;5283;48.876;8.962;2023-07-20T13:01:18;1.40;;;1.30;;
10471;SDS011;5283;48.876;8.962;2023-07-20T13:03:45;1.83;;;1.73;;
10471;SDS011;5283;48.876;8.962;2023-07-20T13:06:14;2.10;;;1.67;;
10471;SDS011;5283;48.876;8.962;2023-07-20T13:08:44;1.67;;;1.57;;
10471;SDS011;5283;48.876;8.962;2023-07-20T13:11:11;1.90;;;1.40;;
10471;SDS011;5283;48.876;8.962;2023-07-20T13:13:37;1.50;;;1.40;;
10471;SDS011;5283;48.876;8.962;2023-07-20T13:16:04;3.87;;;1.50;;
10471;SDS011;5283;48.876;8.962;2023-07-20T13:18:31;2.67;;;1.23;;
10471;SDS011;5283;48.876;8.962;2023-07-20T13:20:58;1.40;;;1.30;;
10471;SDS011;5283;48.876;8.962;2023-07-20T13:23:24;1.43;;;1.33;;
10471;SDS011;5283;48.876;8.962;2023-07-20T13:25:51;1.37;;;1.23;;
10471;SDS011;5283;48.876;8.962;2023-07-20T13:28:18;1.40;;;1.30;;
10471;SDS011;5283;48.876;8.962;2023-07-20T13:30:44;1.63;;;1.30;;
10471;SDS011;5283;48.876;8.962;2023-07-20T13:33:12;1.40;;;1.30;;
10471;SDS011;5283;48.876;8.962;2023-07-20T13:35:42;1.50;;;1.40;;
10471;SDS011;5283;48.876;8.962;2023-07-20T13:38:13;1.37;;;1.27;;
10471;SDS011;5283;48.876;8.962;2023-07-20T13:40:40;1.63;;;1.30;;
10471;SDS011;5283;48.876;8.962;2023-07-20T13:43:06;0.93;;;0.93;;
10471;SDS011;5283;48.876;8.962;2023-07-20T13:45:33;3.63;;;1.40;;
10471;SDS011;5283;48.876;8.962;2023-07-20T13:48:00;1.50;;;1.40;;
10471;SDS011;5283;48.876;8.962;2023-07-20T13:50:27;1.37;;;1.27;;
10471;SDS011;5283;48.876;8.962;2023-07-20T13:53:05;1.10;;;1.00;;
10471;SDS011;5283;48.876;8.962;2023-07-20T13:55:35;1.83;;;1.33;;
10471;SDS011;5283;48.876;8.962;2023-07-20T13:58:06;2.17;;;1.10;;
10471;SDS011;5283;48.876;8.962;2023-07-20T14:00:32;1.70;;;1.57;;
10471;SDS011;5283;48.876;8.962;2023-07-20T14:03:01;2.87;;;1.50;;
10471;SDS011;5283;48.876;8.962;2023-07-20T14:05:30;1.60;;;1.50;;
10471;SDS011;5283;48.876;8.962;2023-07-20T14:08:00;1.00;;;1.00;;
10471;SDS011;5283;48.876;8.962;2023-07-20T14:10:27;2.33;;;1.00;;
10471;SDS011;5283;48.876;8.962;2023-07-20T14:12:53;1.67;;;1.10;;
10471;SDS011;5283;48.876;8.962;2023-07-20T14:15:20;0.97;;;0.97;;
10471;SDS011;5283;48.876;8.962;2023-07-20T14:17:47;2.27;;;1.20;;
10471;SDS011;5283;48.876;8.962;2023-07-20T14:20:14;1.57;;;1.20;;
10471;SDS011;5283;48.876;8.962;2023-07-20T14:22:44;1.23;;;1.13;;
10471;SDS011;5283;48.876;8.962;2023-07-20T14:25:11;1.77;;;1.40;;
10471;SDS011;5283;48.876;8.962;2023-07-20T14:27:39;1.17;;;1.13;;
10471;SDS011;5283;48.876;8.962;2023-07-20T14:30:06;1.50;;;1.33;;
10471;SDS011;5283;48.876;8.962;2023-07-20T14:32:33;2.20;;;1.23;;
10471;SDS011;5283;48.876;8.962;2023-07-20T14:35:00;3.37;;;1.43;;
10471;SDS011;5283;48.876;8.962;2023-07-20T14:37:27;1.23;;;1.13;;
10471;SDS011;5283;48.876;8.962;2023-07-20T14:39:54;1.33;;;1.07;;
10471;SDS011;5283;48.876;8.962;2023-07-20T14:42:21;2.20;;;1.60;;
10471;SDS011;5283;48.876;8.962;2023-07-20T14:44:47;2.00;;;1.33;;
10471;SDS011;5283;48.876;8.962;2023-07-20T14:47:14;1.40;;;1.30;;
10471;SDS011;5283;48.876;8.962;2023-07-20T14:49:41;1.63;;;1.53;;
10471;SDS011;5283;48.876;8.962;2023-07-20T14:52:08;1.53;;;1.43;;
10471;SDS011;5283;48.876;8.962;2023-07-20T14:54:38;1.70;;;1.60;;
10471;SDS011;5283;48.876;8.962;2023-07-20T14:57:05;1.83;;;1.40;;
10471;SDS011;5283;48.876;8.962;2023-07-20T14:59:39;1.00;;;0.90;;
10471;SDS011;5283;48.876;8.962;2023-07-20T15:02:07;4.47;;;1.27;;
10471;SDS011;5283;48.876;8.962;2023-07-20T15:04:34;1.20;;;1.10;;
10471;SDS011;5283;48.876;8.962;2023-07-20T15:07:01;1.33;;;1.23;;
10471;SDS011;5283;48.876;8.962;2023-07-20T15:09:28;2.67;;;1.47;;
10471;SDS011;5283;48.876;8.962;2023-07-20T15:11:55;1.00;;;1.00;;
10471;SDS011;5283;48.876;8.962;2023-07-20T15:14:22;1.20;;;1.10;;
10471;SDS011;5283;48.876;8.962;2023-07-20T15:16:49;1.50;;;1.40;;
10471;SDS011;5283;48.876;8.962;2023-07-20T15:19:16;2.03;;;1.30;;
10471;SDS011;5283;48.876;8.962;2023-07-20T15:21:43;1.63;;;1.53;;
10471;SDS011;5283;48.876;8.962;2023-07-20T15:24:11;3.03;;;1.20;;
10471;SDS011;5283;48.876;8.962;2023-07-20T15:26:38;1.30;;;1.20;;